< < Back
Terminal Aerodrome Forecast


Current Version              Previous Versions:   1  2  3  4  5  6  7  8  9  

Terminal Aerodrome Forecast

750
FTUS44 KHUN 251120
TAFHSV
TAF
KHSV 251120Z 2512/2612 VRB03KT P6SM SKC
     FM251900 26005KT P6SM SCT040
     FM260900 VRB02KT 5SM BR SKC=



Latest METAR

841
SAUS80 KWBC 260100 RRB
MTRHSV
METAR KHSV 260053Z 00000KT 10SM FEW045 19/15 A3003 RMK AO2 SLP167
T01940150


USA.gov is the U.S. government's official web portal to all federal, state and local government web resources and services.